Time;durP1;ratioP1;P1;durP2;ratioP2;P2;SDS_P1;SDS_P2;PMS_P1;PMS_P2;Temp;Humidity;BMP_temperature;BMP_pressure;BME280_temperature;BME280_humidity;BME280_pressure;Samples;Min_cycle;Max_cycle;Signal;HPM_P1;HPM_P2
2024/05/07 00:02:20;;;;;;;5.53;5.03;;;12.90;99.90;;;;;;6542313;21;20266;-78
2024/05/07 00:04:49;;;;;;;4.90;4.50;;;12.80;99.90;;;;;;6529882;22;20224;-78
2024/05/07 00:07:17;;;;;;;5.43;4.93;;;12.80;99.90;;;;;;6484906;22;20232;-78
2024/05/07 00:09:46;;;;;;;6.40;5.43;;;12.80;99.90;;;;;;6529540;22;20249;-78
2024/05/07 00:12:15;;;;;;;5.93;5.33;;;12.80;99.90;;;;;;6484974;22;20246;-78
2024/05/07 00:14:44;;;;;;;9.07;5.60;;;12.80;99.90;;;;;;6528995;22;20287;-78
2024/05/07 00:17:15;;;;;;;6.33;5.73;;;12.80;99.90;;;;;;6484719;22;20307;-78
2024/05/07 00:19:43;;;;;;;7.37;5.57;;;12.80;99.90;;;;;;6529826;22;20246;-79
2024/05/07 00:22:12;;;;;;;6.03;5.50;;;12.90;99.90;;;;;;6485048;22;20231;-78
2024/05/07 00:24:40;;;;;;;6.63;6.00;;;12.80;99.90;;;;;;6529658;22;20219;-78
2024/05/07 00:27:09;;;;;;;7.37;5.40;;;12.90;99.90;;;;;;6529485;22;20325;-78
2024/05/07 00:29:38;;;;;;;6.27;5.30;;;12.80;99.90;;;;;;6484591;22;20278;-78
2024/05/07 00:32:07;;;;;;;6.83;6.10;;;12.90;99.90;;;;;;6529720;22;20266;-78
2024/05/07 00:34:38;;;;;;;6.17;5.60;;;12.80;99.90;;;;;;6484752;22;20240;-78
2024/05/07 00:37:07;;;;;;;6.20;5.60;;;12.80;99.90;;;;;;6484696;22;20232;-78
2024/05/07 00:39:35;;;;;;;5.77;5.17;;;12.80;99.90;;;;;;6529471;22;20216;-78
2024/05/07 00:42:06;;;;;;;5.67;5.17;;;12.80;99.90;;;;;;6484381;22;20232;-78
2024/05/07 00:44:35;;;;;;;5.60;5.10;;;12.80;99.90;;;;;;6529915;22;20267;-78
2024/05/07 00:47:04;;;;;;;5.90;5.23;;;12.80;99.90;;;;;;6484553;22;20292;-78
2024/05/07 00:49:33;;;;;;;5.73;4.70;;;12.70;99.90;;;;;;6529332;22;20220;-78
2024/05/07 00:52:06;;;;;;;5.73;5.23;;;12.70;99.90;;;;;;6484542;22;20232;-78
2024/05/07 00:54:35;;;;;;;5.03;4.53;;;12.70;99.90;;;;;;6529450;22;20217;-78
2024/05/07 00:57:04;;;;;;;5.13;4.37;;;12.60;99.90;;;;;;6529351;22;20232;-78
2024/05/07 00:59:33;;;;;;;5.13;4.63;;;12.60;99.90;;;;;;6484707;22;20232;-78
2024/05/07 01:02:02;;;;;;;4.90;4.50;;;12.70;99.90;;;;;;6543794;21;20242;-78
2024/05/07 01:04:30;;;;;;;5.73;4.67;;;12.60;99.90;;;;;;6581346;21;20226;-78
2024/05/07 01:06:59;;;;;;;6.20;5.03;;;12.60;99.90;;;;;;6582176;21;20270;-78
2024/05/07 01:09:30;;;;;;;6.07;5.47;;;12.60;99.90;;;;;;6583483;21;20227;-78
2024/05/07 01:11:58;;;;;;;5.83;5.23;;;12.60;99.90;;;;;;6582014;21;20231;-78
2024/05/07 01:14:27;;;;;;;6.33;5.10;;;12.50;99.90;;;;;;6583620;21;20257;-78
2024/05/07 01:16:55;;;;;;;8.60;5.80;;;12.50;99.90;;;;;;6581678;21;20219;-78
2024/05/07 01:19:24;;;;;;;7.43;5.63;;;12.50;99.90;;;;;;6583722;21;20293;-79
2024/05/07 01:21:55;;;;;;;6.47;5.87;;;12.50;99.90;;;;;;6584149;21;20262;-79
2024/05/07 01:24:28;;;;;;;6.70;6.00;;;12.50;99.90;;;;;;6581636;21;20273;-79
2024/05/07 01:26:57;;;;;;;6.20;5.60;;;12.60;99.90;;;;;;6584072;21;20265;-79
2024/05/07 01:29:26;;;;;;;7.30;5.90;;;12.60;99.90;;;;;;6583923;21;20215;-79
2024/05/07 01:31:54;;;;;;;7.07;6.23;;;12.60;99.90;;;;;;6583414;21;20254;-79
2024/05/07 01:34:23;;;;;;;7.90;6.20;;;12.60;99.90;;;;;;6581500;21;20269;-78
2024/05/07 01:36:51;;;;;;;6.90;5.73;;;12.60;99.90;;;;;;6584015;21;20266;-79
2024/05/07 01:39:20;;;;;;;7.10;6.23;;;12.50;99.90;;;;;;6581293;21;20231;-79
2024/05/07 01:41:51;;;;;;;8.43;6.57;;;12.50;99.90;;;;;;6583419;21;20215;-79
2024/05/07 01:44:19;;;;;;;6.90;6.13;;;12.60;99.90;;;;;;6583423;21;20215;-79
2024/05/07 01:46:48;;;;;;;7.07;6.40;;;12.60;99.90;;;;;;6583691;21;20215;-79
2024/05/07 01:49:17;;;;;;;7.40;6.70;;;12.60;99.90;;;;;;6581279;21;20227;-79
2024/05/07 01:51:46;;;;;;;7.70;6.93;;;12.60;99.90;;;;;;6581277;21;20230;-79
2024/05/07 01:54:14;;;;;;;8.30;7.17;;;12.50;99.90;;;;;;6583157;21;20268;-79
2024/05/07 01:56:43;;;;;;;7.93;7.13;;;12.50;99.90;;;;;;6580975;21;20238;-79
2024/05/07 01:59:14;;;;;;;7.20;6.50;;;12.50;99.90;;;;;;6583225;21;20266;-79
2024/05/07 02:01:42;;;;;;;7.97;7.17;;;12.50;99.90;;;;;;6580891;21;20242;-79
2024/05/07 02:04:11;;;;;;;11.43;7.70;;;12.50;99.90;;;;;;6583047;21;20215;-79
2024/05/07 02:06:39;;;;;;;8.40;7.70;;;12.60;99.90;;;;;;6582991;21;20215;-79
2024/05/07 02:09:08;;;;;;;9.33;7.80;;;12.50;99.90;;;;;;6580983;21;20262;-79
2024/05/07 02:11:37;;;;;;;8.87;8.07;;;12.50;99.90;;;;;;6580570;21;20317;-79
2024/05/07 02:14:17;;;;;;;9.00;8.10;;;12.60;99.90;;;;;;6582696;21;20254;-78
2024/05/07 02:16:49;;;;;;;9.63;8.43;;;12.60;99.90;;;;;;6580924;21;20260;-79
2024/05/07 02:19:17;;;;;;;8.80;7.90;;;12.60;99.90;;;;;;6580967;21;20267;-78
2024/05/07 02:21:46;;;;;;;11.03;8.93;;;12.50;99.90;;;;;;6580736;21;20227;-79
2024/05/07 02:24:16;;;;;;;9.97;8.57;;;12.50;99.90;;;;;;6580908;21;20227;-78
2024/05/07 02:26:45;;;;;;;10.37;9.37;;;12.50;99.90;;;;;;6580637;21;20223;-78
2024/05/07 02:29:13;;;;;;;10.10;9.10;;;12.60;99.90;;;;;;6580905;21;20249;-78
2024/05/07 02:31:42;;;;;;;10.10;8.80;;;12.50;99.90;;;;;;6580762;21;20226;-79
2024/05/07 02:34:10;;;;;;;10.97;9.87;;;12.50;99.90;;;;;;6580892;21;20238;-78
2024/05/07 02:36:39;;;;;;;10.23;9.13;;;12.50;99.90;;;;;;6581087;21;20226;-78
2024/05/07 02:39:07;;;;;;;10.30;9.20;;;12.60;99.90;;;;;;6580944;21;20273;-79
2024/05/07 02:41:36;;;;;;;9.67;8.67;;;12.50;99.90;;;;;;6582991;21;20215;-79
2024/05/07 02:44:02;;;;;;;10.47;9.43;;;12.50;99.90;;;;;;6580604;21;20226;-78
2024/05/07 02:46:30;;;;;;;10.30;9.20;;;12.50;99.90;;;;;;6580520;21;20257;-78
2024/05/07 02:48:59;;;;;;;10.80;9.33;;;12.40;99.90;;;;;;6582850;21;20319;-78
2024/05/07 02:51:30;;;;;;;9.77;8.80;;;12.60;99.90;;;;;;6580709;21;20231;-79
2024/05/07 02:53:58;;;;;;;11.03;8.80;;;12.50;99.90;;;;;;6580626;21;20233;-78
2024/05/07 02:56:27;;;;;;;9.20;8.30;;;12.50;99.90;;;;;;6580478;21;20277;-79
2024/05/07 02:58:56;;;;;;;9.77;8.30;;;12.40;99.90;;;;;;6580695;21;20231;-79
2024/05/07 03:01:24;;;;;;;9.20;8.10;;;12.40;99.90;;;;;;6580448;21;20359;-79
2024/05/07 03:03:53;;;;;;;8.90;7.97;;;12.40;99.90;;;;;;6580407;21;20254;-79
2024/05/07 03:06:21;;;;;;;10.87;8.00;;;12.40;99.90;;;;;;6583012;21;20245;-79
2024/05/07 03:08:52;;;;;;;11.23;8.70;;;12.40;99.90;;;;;;6580241;21;20261;-79
2024/05/07 03:11:21;;;;;;;8.80;7.90;;;12.40;99.90;;;;;;6580411;21;20271;-79
2024/05/07 03:13:49;;;;;;;8.83;7.93;;;12.40;99.90;;;;;;6580340;21;20231;-79
2024/05/07 03:16:18;;;;;;;9.70;8.00;;;12.40;99.90;;;;;;6580460;21;20231;-79
2024/05/07 03:18:46;;;;;;;9.03;8.13;;;12.40;99.90;;;;;;6580200;21;20239;-79
2024/05/07 03:21:15;;;;;;;9.07;8.17;;;12.40;99.90;;;;;;6580254;21;20238;-79
2024/05/07 03:23:43;;;;;;;9.27;8.23;;;12.40;99.90;;;;;;6580207;21;20227;-79
2024/05/07 03:26:15;;;;;;;10.47;7.87;;;12.40;99.90;;;;;;6582377;21;20311;-79
2024/05/07 03:28:43;;;;;;;9.27;8.37;;;12.40;99.90;;;;;;6580122;21;20231;-79
2024/05/07 03:31:12;;;;;;;11.07;8.47;;;12.40;99.90;;;;;;6582399;21;20258;-79
2024/05/07 03:33:41;;;;;;;9.03;8.10;;;12.40;99.90;;;;;;6580163;21;20226;-79
2024/05/07 03:36:10;;;;;;;10.43;8.83;;;12.40;99.90;;;;;;6580217;21;20226;-79
2024/05/07 03:38:38;;;;;;;8.73;7.93;;;12.40;99.90;;;;;;6580123;21;20274;-79
2024/05/07 03:41:10;;;;;;;9.80;8.20;;;12.30;99.90;;;;;;6580095;21;20227;-79
2024/05/07 03:43:41;;;;;;;8.77;7.87;;;12.30;99.90;;;;;;6582391;21;20219;-79
2024/05/07 03:46:11;;;;;;;10.37;8.23;;;12.20;99.90;;;;;;6582301;21;20218;-78
2024/05/07 03:48:40;;;;;;;8.30;7.50;;;12.20;99.90;;;;;;6582211;21;20223;-78
2024/05/07 03:51:08;;;;;;;8.50;7.70;;;12.20;99.90;;;;;;6580067;21;20231;-79
2024/05/07 03:53:40;;;;;;;9.37;7.53;;;12.30;99.90;;;;;;6579787;21;20230;-79
2024/05/07 03:56:11;;;;;;;13.00;8.00;;;12.20;99.90;;;;;;6579957;21;20239;-79
2024/05/07 03:58:45;;;;;;;8.23;7.43;;;12.30;99.90;;;;;;6580020;21;20302;-79
2024/05/07 04:01:13;;;;;;;8.30;7.50;;;12.20;99.90;;;;;;6566694;21;20227;-79
2024/05/07 04:03:46;;;;;;;8.80;7.40;;;12.20;99.90;;;;;;6529843;22;20220;-79
2024/05/07 04:06:14;;;;;;;7.47;6.77;;;12.20;99.90;;;;;;6485122;22;20263;-79
2024/05/07 04:08:43;;;;;;;9.13;7.80;;;12.20;99.90;;;;;;6530065;22;20267;-79
2024/05/07 04:11:12;;;;;;;7.87;7.07;;;12.10;99.90;;;;;;6485018;22;20245;-79
2024/05/07 04:13:43;;;;;;;7.33;6.63;;;12.10;99.90;;;;;;6484896;22;20232;-79
2024/05/07 04:16:12;;;;;;;7.43;6.70;;;12.20;99.90;;;;;;6484748;22;20227;-79
2024/05/07 04:18:40;;;;;;;7.70;6.90;;;12.10;99.90;;;;;;6484880;22;20231;-79
2024/05/07 04:21:11;;;;;;;9.50;7.27;;;12.10;99.90;;;;;;6529673;22;20272;-79
2024/05/07 04:23:39;;;;;;;8.67;7.30;;;12.20;99.90;;;;;;6529907;22;20224;-79
2024/05/07 04:26:08;;;;;;;8.43;7.30;;;12.20;99.90;;;;;;6484806;22;20231;-79
2024/05/07 04:28:36;;;;;;;7.23;6.53;;;12.20;99.90;;;;;;6529522;22;20216;-80
2024/05/07 04:31:13;;;;;;;7.73;6.80;;;12.20;99.90;;;;;;6529599;22;20266;-79
2024/05/07 04:33:42;;;;;;;7.00;6.30;;;12.10;99.90;;;;;;6530000;22;20215;-79
2024/05/07 04:36:10;;;;;;;7.67;6.70;;;12.00;99.90;;;;;;6530759;22;20216;-79
2024/05/07 04:38:39;;;;;;;6.90;6.20;;;12.00;99.90;;;;;;6531334;22;20359;-79
2024/05/07 04:41:08;;;;;;;7.00;6.30;;;12.00;99.90;;;;;;6531654;22;20268;-79
2024/05/07 04:43:37;;;;;;;7.77;5.97;;;12.10;99.90;;;;;;6531745;22;20267;-79
2024/05/07 04:46:08;;;;;;;5.93;5.43;;;12.10;99.90;;;;;;6486629;22;20231;-79
2024/05/07 04:48:37;;;;;;;6.87;5.70;;;12.10;99.90;;;;;;6486924;22;20227;-79
2024/05/07 04:51:06;;;;;;;5.87;5.27;;;12.10;99.90;;;;;;6486602;22;20223;-79
2024/05/07 04:53:34;;;;;;;6.20;5.53;;;12.10;99.90;;;;;;6531831;22;20270;-80
2024/05/07 04:56:03;;;;;;;6.97;4.90;;;12.00;99.90;;;;;;6531485;22;20231;-79
2024/05/07 04:58:31;;;;;;;6.57;5.87;;;12.10;99.90;;;;;;6486518;22;20232;-79
2024/05/07 05:01:00;;;;;;;6.53;5.27;;;12.10;99.90;;;;;;6531614;21;20231;-79
2024/05/07 05:03:32;;;;;;;9.03;5.50;;;12.10;99.90;;;;;;6531439;22;20216;-79
2024/05/07 05:06:01;;;;;;;5.50;5.00;;;12.10;99.90;;;;;;6531837;22;20219;-79
2024/05/07 05:08:29;;;;;;;8.63;4.50;;;12.10;99.90;;;;;;6486530;22;20224;-79
2024/05/07 05:10:59;;;;;;;5.70;5.10;;;12.10;99.90;;;;;;6531100;22;20247;-79
2024/05/07 05:13:28;;;;;;;5.10;4.60;;;12.00;99.90;;;;;;6531828;22;20224;-79
2024/05/07 05:15:57;;;;;;;4.93;4.50;;;12.00;99.90;;;;;;6486262;22;20267;-79
2024/05/07 05:18:25;;;;;;;5.37;4.70;;;12.10;99.90;;;;;;6530984;22;20216;-79
2024/05/07 05:20:57;;;;;;;4.97;4.47;;;12.10;99.90;;;;;;6531364;22;20216;-79
2024/05/07 05:23:26;;;;;;;5.07;4.57;;;12.10;99.90;;;;;;6531090;22;20216;-79
2024/05/07 05:25:55;;;;;;;4.93;4.40;;;12.10;99.90;;;;;;6531929;22;20266;-79
2024/05/07 05:28:24;;;;;;;6.07;4.93;;;12.10;99.90;;;;;;6486380;22;20269;-79
2024/05/07 05:30:52;;;;;;;5.17;4.67;;;12.10;99.90;;;;;;6486161;22;20251;-79
2024/05/07 05:33:21;;;;;;;4.80;4.30;;;12.10;99.90;;;;;;6531421;22;20216;-79
2024/05/07 05:35:49;;;;;;;5.43;4.80;;;12.20;99.90;;;;;;6531520;22;20224;-79
2024/05/07 05:38:20;;;;;;;6.10;5.20;;;12.20;99.90;;;;;;6531187;22;20262;-79
2024/05/07 05:40:51;;;;;;;5.03;4.40;;;12.20;99.90;;;;;;6486350;22;20262;-79
2024/05/07 05:43:19;;;;;;;5.50;5.00;;;12.20;99.90;;;;;;6531033;22;20216;-79
2024/05/07 05:45:48;;;;;;;5.97;4.73;;;12.20;99.90;;;;;;6531025;22;20216;-79
2024/05/07 05:48:17;;;;;;;4.67;4.27;;;12.20;99.90;;;;;;6486330;22;20232;-79
2024/05/07 05:50:45;;;;;;;5.50;5.00;;;12.30;99.90;;;;;;6530828;22;20254;-80
2024/05/07 05:53:15;;;;;;;5.07;4.57;;;12.30;99.90;;;;;;6485982;22;20232;-80
2024/05/07 05:55:46;;;;;;;9.27;4.53;;;12.30;99.90;;;;;;6486118;22;20239;-80
2024/05/07 05:58:15;;;;;;;4.93;4.43;;;12.40;99.90;;;;;;6486331;22;20232;-80
2024/05/07 06:00:46;;;;;;;5.97;4.43;;;12.50;99.90;;;;;;6485781;21;20243;-80
2024/05/07 06:03:15;;;;;;;4.20;3.80;;;12.50;99.90;;;;;;6531145;22;20216;-80
2024/05/07 06:05:44;;;;;;;5.73;4.20;;;12.60;99.90;;;;;;6531013;22;20216;-79
2024/05/07 06:08:15;;;;;;;5.90;4.50;;;12.50;99.90;;;;;;6486412;22;20232;-80
2024/05/07 06:10:46;;;;;;;6.50;4.23;;;12.60;99.90;;;;;;6485893;22;20240;-80
2024/05/07 06:13:15;;;;;;;5.17;4.67;;;12.60;99.90;;;;;;6485397;22;20224;-80
2024/05/07 06:15:44;;;;;;;5.83;4.70;;;12.60;99.90;;;;;;6486077;22;20239;-80
2024/05/07 06:18:13;;;;;;;5.73;4.53;;;12.70;99.90;;;;;;6530800;22;20219;-79
2024/05/07 06:20:41;;;;;;;6.40;4.87;;;12.70;99.90;;;;;;6530898;22;20216;-79
2024/05/07 06:23:10;;;;;;;4.50;4.10;;;12.80;99.90;;;;;;6531041;22;20216;-79
2024/05/07 06:25:39;;;;;;;6.13;3.93;;;12.90;99.90;;;;;;6530732;22;20216;-79
2024/05/07 06:28:12;;;;;;;5.83;4.30;;;12.90;99.90;;;;;;6485999;22;20227;-80
2024/05/07 06:30:40;;;;;;;4.87;4.47;;;12.80;99.90;;;;;;6530681;22;20246;-79
2024/05/07 06:33:10;;;;;;;4.53;4.13;;;12.80;99.90;;;;;;6530997;22;20215;-79
2024/05/07 06:35:39;;;;;;;5.23;4.20;;;12.80;99.90;;;;;;6530566;22;20216;-79
2024/05/07 06:38:07;;;;;;;4.60;4.20;;;12.90;99.90;;;;;;6485631;22;20232;-79
2024/05/07 06:40:36;;;;;;;4.80;4.40;;;12.90;99.90;;;;;;6485926;22;20243;-80
2024/05/07 06:43:05;;;;;;;4.27;3.87;;;13.10;99.90;;;;;;6485673;22;20224;-80
2024/05/07 06:45:36;;;;;;;4.50;4.10;;;13.00;99.90;;;;;;6531075;22;20216;-80
2024/05/07 06:48:05;;;;;;;4.60;4.20;;;13.10;99.90;;;;;;6485617;22;20274;-80
2024/05/07 06:50:33;;;;;;;4.10;3.70;;;13.20;99.90;;;;;;6530345;22;20220;-80
2024/05/07 06:53:02;;;;;;;5.10;3.90;;;13.20;99.90;;;;;;6485662;22;20232;-79
2024/05/07 06:55:30;;;;;;;4.07;3.67;;;13.20;99.90;;;;;;6530418;22;20232;-79
2024/05/07 06:57:59;;;;;;;7.07;3.53;;;13.20;99.90;;;;;;6529828;22;20251;-80
2024/05/07 07:00:27;;;;;;;4.00;3.60;;;13.20;99.90;;;;;;6530306;22;20279;-80
2024/05/07 07:02:58;;;;;;;3.60;3.30;;;13.40;99.90;;;;;;6485589;22;20232;-80
2024/05/07 07:05:27;;;;;;;3.57;3.23;;;13.50;99.90;;;;;;6485458;22;20270;-80
2024/05/07 07:07:55;;;;;;;3.57;3.27;;;13.50;99.90;;;;;;6485594;22;20244;-80
2024/05/07 07:10:24;;;;;;;3.53;3.23;;;13.70;99.90;;;;;;6484898;22;20262;-80
2024/05/07 07:12:52;;;;;;;4.90;3.13;;;13.90;99.90;;;;;;6485570;22;20232;-80
2024/05/07 07:15:21;;;;;;;4.40;3.20;;;13.90;99.90;;;;;;6485176;22;20232;-80
2024/05/07 07:17:50;;;;;;;3.47;3.10;;;14.10;99.90;;;;;;6530483;22;20280;-80
2024/05/07 07:20:21;;;;;;;3.63;3.33;;;14.20;99.90;;;;;;6529866;22;20275;-80
2024/05/07 07:22:50;;;;;;;3.30;3.00;;;14.30;99.90;;;;;;6530047;22;20267;-80
2024/05/07 07:25:18;;;;;;;3.40;3.20;;;14.30;99.90;;;;;;6485132;22;20231;-80
2024/05/07 07:27:47;;;;;;;3.10;2.80;;;14.00;99.90;;;;;;6530672;22;20216;-80
2024/05/07 07:30:15;;;;;;;3.83;3.20;;;14.00;99.90;;;;;;6530051;22;20267;-80
2024/05/07 07:32:43;;;;;;;3.13;2.90;;;14.00;99.90;;;;;;6485216;22;20232;-80
2024/05/07 07:35:12;;;;;;;3.30;2.70;;;13.90;99.90;;;;;;6530073;22;20267;-80
2024/05/07 07:37:43;;;;;;;3.40;2.80;;;13.80;99.90;;;;;;6485292;22;20229;-80
2024/05/07 07:40:14;;;;;;;2.77;2.53;;;13.90;99.90;;;;;;6530115;22;20216;-80
2024/05/07 07:42:42;;;;;;;2.63;2.43;;;13.90;99.90;;;;;;6485079;22;20232;-80
2024/05/07 07:45:11;;;;;;;2.83;2.63;;;13.80;99.90;;;;;;6530145;22;20213;-80
2024/05/07 07:47:39;;;;;;;4.20;2.67;;;14.00;99.90;;;;;;6484995;22;20247;-80
2024/05/07 07:50:09;;;;;;;3.33;2.80;;;14.00;99.90;;;;;;6529909;22;20251;-80
2024/05/07 07:52:37;;;;;;;5.40;3.00;;;13.90;99.90;;;;;;6529861;22;20220;-80
2024/05/07 07:55:10;;;;;;;3.70;2.70;;;13.90;99.90;;;;;;6530262;22;20217;-80
2024/05/07 07:57:38;;;;;;;5.73;2.60;;;14.20;99.90;;;;;;6530160;22;20255;-80
2024/05/07 08:00:08;;;;;;;3.13;2.70;;;14.40;99.90;;;;;;6485303;22;20224;-80
2024/05/07 08:02:36;;;;;;;5.73;2.90;;;14.50;99.90;;;;;;6566170;21;20250;-80
2024/05/07 08:05:05;;;;;;;2.53;2.30;;;14.60;99.90;;;;;;6580579;21;20230;-79
2024/05/07 08:07:34;;;;;;;2.57;2.10;;;14.70;99.90;;;;;;6580083;21;20266;-80
2024/05/07 08:10:02;;;;;;;3.10;2.60;;;14.90;99.90;;;;;;6582427;21;20215;-79
2024/05/07 08:12:33;;;;;;;3.23;2.30;;;15.00;99.90;;;;;;6582713;21;20261;-80
2024/05/07 08:15:02;;;;;;;2.60;2.40;;;14.70;99.90;;;;;;6580363;21;20223;-79
2024/05/07 08:17:30;;;;;;;3.80;2.40;;;14.70;99.90;;;;;;6582571;21;20215;-80
2024/05/07 08:19:59;;;;;;;2.63;2.27;;;14.70;99.90;;;;;;6582170;21;20219;-79
2024/05/07 08:22:27;;;;;;;2.90;2.13;;;14.70;99.90;;;;;;6580392;21;20330;-80
2024/05/07 08:24:56;;;;;;;3.07;2.20;;;15.00;99.90;;;;;;6580529;21;20230;-80
2024/05/07 08:27:24;;;;;;;2.57;2.10;;;15.00;99.90;;;;;;6582362;21;20317;-80
2024/05/07 08:29:55;;;;;;;2.50;2.30;;;15.00;99.90;;;;;;6582587;21;20215;-80
2024/05/07 08:32:24;;;;;;;2.20;2.00;;;14.90;99.90;;;;;;6582755;21;20215;-80
2024/05/07 08:34:52;;;;;;;2.53;1.97;;;15.00;99.90;;;;;;6582156;21;20239;-80
2024/05/07 08:37:24;;;;;;;2.63;2.00;;;15.00;99.90;;;;;;6582691;21;20219;-81
2024/05/07 08:39:53;;;;;;;2.30;2.10;;;15.20;99.90;;;;;;6582786;21;20215;-82
2024/05/07 08:42:21;;;;;;;2.20;2.00;;;15.20;99.90;;;;;;6580978;21;20231;-79
2024/05/07 08:44:51;;;;;;;1.87;1.77;;;15.30;99.90;;;;;;6586468;21;20215;-80
2024/05/07 08:47:26;;;;;;;1.87;1.73;;;15.30;99.90;;;;;;6585151;21;20231;-80
2024/05/07 08:49:55;;;;;;;2.80;2.20;;;15.30;99.90;;;;;;6584983;21;20273;-80
2024/05/07 08:52:27;;;;;;;4.07;2.23;;;15.30;99.90;;;;;;6585918;21;20227;-80
2024/05/07 08:54:56;;;;;;;3.40;1.97;;;15.50;99.90;;;;;;6587754;21;20215;-81
2024/05/07 08:57:25;;;;;;;2.13;1.93;;;15.20;99.90;;;;;;6587365;21;20265;-80
2024/05/07 08:59:53;;;;;;;2.63;1.97;;;15.20;99.90;;;;;;6587386;21;20227;-81
2024/05/07 09:02:24;;;;;;;2.00;1.90;;;15.40;99.90;;;;;;6545820;21;20304;-82
2024/05/07 09:04:53;;;;;;;2.10;1.83;;;15.00;99.90;;;;;;6530246;22;20325;-82
2024/05/07 09:07:31;;;;;;;2.10;1.90;;;15.00;99.90;;;;;;6485006;22;20328;-81
2024/05/07 09:09:59;;;;;;;3.97;2.30;;;15.10;99.90;;;;;;6530119;22;20254;-80
2024/05/07 09:12:28;;;;;;;1.90;1.80;;;15.10;99.90;;;;;;6484897;22;20224;-81
2024/05/07 09:14:56;;;;;;;2.23;1.90;;;15.20;99.90;;;;;;6529742;22;20217;-81
2024/05/07 09:17:29;;;;;;;2.03;1.83;;;15.00;99.90;;;;;;6529493;22;20251;-80
2024/05/07 09:19:59;;;;;;;2.13;1.67;;;14.90;99.90;;;;;;6529626;22;20216;-80
2024/05/07 09:22:27;;;;;;;2.07;1.87;;;14.90;99.90;;;;;;6486193;22;20224;-80
2024/05/07 09:24:57;;;;;;;2.13;1.70;;;14.90;99.90;;;;;;6531348;22;20216;-80
2024/05/07 09:27:26;;;;;;;2.00;1.80;;;14.50;99.90;;;;;;6531751;22;20355;-81
2024/05/07 09:29:57;;;;;;;2.63;2.00;;;14.60;99.90;;;;;;6486928;22;20243;-80
2024/05/07 09:32:29;;;;;;;2.30;2.10;;;14.50;99.90;;;;;;6486455;22;20272;-81
2024/05/07 09:34:58;;;;;;;3.10;2.70;;;14.50;99.90;;;;;;6531573;22;20247;-81
2024/05/07 09:37:28;;;;;;;2.93;2.20;;;14.70;99.90;;;;;;6532030;22;20220;-81
2024/05/07 09:40:08;;;;;;;2.50;2.30;;;15.00;99.90;;;;;;6531290;22;20250;-81
2024/05/07 09:42:46;;;;;;;2.33;2.13;;;15.20;99.90;;;;;;6531790;22;20216;-81
2024/05/07 09:45:22;;;;;;;3.20;2.20;;;15.40;99.90;;;;;;6532050;22;20216;-81
2024/05/07 09:47:57;;;;;;;2.17;1.90;;;15.00;99.90;;;;;;6486480;22;20266;-80
2024/05/07 09:50:27;;;;;;;1.70;1.60;;;15.10;99.90;;;;;;6531413;22;20220;-81
2024/05/07 09:52:56;;;;;;;2.07;1.90;;;15.30;99.90;;;;;;6486229;22;20228;-81
2024/05/07 09:55:27;;;;;;;6.03;2.20;;;15.50;99.90;;;;;;6486377;22;20310;-81
2024/05/07 09:57:56;;;;;;;2.63;1.77;;;15.30;99.90;;;;;;6531705;22;20216;-82
2024/05/07 10:00:25;;;;;;;2.20;2.00;;;15.20;99.90;;;;;;6531736;22;20216;-81
2024/05/07 10:02:56;;;;;;;2.33;1.80;;;15.10;99.90;;;;;;6531308;21;20266;-81
2024/05/07 10:05:25;;;;;;;5.40;1.90;;;15.10;99.90;;;;;;6486352;22;20275;-81
2024/05/07 10:07:53;;;;;;;2.03;1.83;;;15.10;99.90;;;;;;6485926;22;20232;-81
2024/05/07 10:10:22;;;;;;;2.30;1.90;;;15.20;99.90;;;;;;6486211;22;20232;-80
2024/05/07 10:12:54;;;;;;;2.67;1.70;;;15.10;99.90;;;;;;6485706;22;20317;-81
2024/05/07 10:15:26;;;;;;;2.27;2.07;;;15.20;99.90;;;;;;6486318;22;20558;-81
2024/05/07 10:17:58;;;;;;;3.00;2.20;;;15.40;99.90;;;;;;6530816;22;20267;-81
2024/05/07 10:20:27;;;;;;;2.70;1.80;;;15.50;99.90;;;;;;6531121;22;20220;-81
2024/05/07 10:23:13;;;;;;;3.27;1.83;;;15.40;99.90;;;;;;6485935;22;20224;-81
2024/05/07 10:25:52;;;;;;;1.73;1.57;;;15.30;99.90;;;;;;6486025;22;20228;-81
2024/05/07 10:28:22;;;;;;;2.13;1.70;;;15.40;99.90;;;;;;6485743;22;20228;-81
2024/05/07 10:30:52;;;;;;;1.43;1.33;;;15.50;99.90;;;;;;6485578;22;20232;-81
2024/05/07 10:33:24;;;;;;;1.53;1.43;;;15.30;99.90;;;;;;6530125;22;20216;-81
2024/05/07 10:35:53;;;;;;;2.00;1.50;;;15.40;99.90;;;;;;6530656;22;20224;-81
2024/05/07 10:38:28;;;;;;;1.83;1.60;;;15.50;99.90;;;;;;6485593;22;20262;-81
2024/05/07 10:41:05;;;;;;;1.67;1.43;;;15.50;99.90;;;;;;6530924;22;20215;-81
2024/05/07 10:43:36;;;;;;;3.93;1.60;;;15.50;99.90;;;;;;6485678;22;20228;-81
2024/05/07 10:46:05;;;;;;;1.60;1.50;;;15.50;99.90;;;;;;6485641;22;20228;-81
2024/05/07 10:48:43;;;;;;;1.43;1.33;;;15.50;99.90;;;;;;6485812;22;20231;-81
2024/05/07 10:51:11;;;;;;;1.77;1.50;;;15.70;99.90;;;;;;6485423;22;20231;-81
2024/05/07 10:53:41;;;;;;;1.30;1.20;;;15.70;99.90;;;;;;6485721;22;20243;-81
2024/05/07 10:56:11;;;;;;;1.90;1.70;;;15.80;99.90;;;;;;6485362;22;20239;-81
2024/05/07 10:58:41;;;;;;;1.83;1.60;;;15.90;99.90;;;;;;6530489;22;20272;-81
2024/05/07 11:01:10;;;;;;;2.03;1.63;;;16.00;99.90;;;;;;6530794;21;20228;-81
2024/05/07 11:03:41;;;;;;;2.40;1.77;;;16.00;99.90;;;;;;6530624;22;20275;-81
2024/05/07 11:06:10;;;;;;;2.43;1.53;;;16.20;99.90;;;;;;6530880;22;20216;-82
2024/05/07 11:08:39;;;;;;;1.87;1.47;;;16.10;99.90;;;;;;6530646;22;20216;-81
2024/05/07 11:11:08;;;;;;;2.30;1.57;;;15.40;99.90;;;;;;6530567;22;20216;-81
2024/05/07 11:13:37;;;;;;;2.23;1.80;;;15.20;99.90;;;;;;6485292;22;20255;-81
2024/05/07 11:16:06;;;;;;;2.63;1.70;;;15.10;99.90;;;;;;6485628;22;20232;-82
2024/05/07 11:18:35;;;;;;;2.53;2.00;;;15.20;99.90;;;;;;6530335;22;20266;-81
2024/05/07 11:21:11;;;;;;;2.77;1.80;;;15.60;99.90;;;;;;6530162;22;20263;-81
2024/05/07 11:23:40;;;;;;;1.87;1.77;;;15.80;99.90;;;;;;6485358;22;20232;-81
2024/05/07 11:26:09;;;;;;;2.33;1.80;;;16.10;99.90;;;;;;6530532;22;20216;-81
2024/05/07 11:28:39;;;;;;;3.50;1.70;;;16.10;99.90;;;;;;6485355;22;20303;-82
2024/05/07 11:31:07;;;;;;;3.57;1.60;;;16.00;99.90;;;;;;6529940;22;20216;-82
2024/05/07 11:33:37;;;;;;;1.50;1.40;;;16.00;99.90;;;;;;6485198;22;20259;-82
2024/05/07 11:36:06;;;;;;;3.00;1.80;;;16.10;99.90;;;;;;6485157;22;20239;-82
2024/05/07 11:38:37;;;;;;;2.37;1.83;;;16.10;99.90;;;;;;6485458;22;20228;-82
2024/05/07 11:41:07;;;;;;;2.40;1.73;;;16.30;99.90;;;;;;6530566;22;20267;-82
2024/05/07 11:43:36;;;;;;;2.37;1.50;;;16.00;99.90;;;;;;6485184;22;20235;-81
2024/05/07 11:46:04;;;;;;;1.50;1.40;;;16.00;99.90;;;;;;6530273;22;20232;-82
2024/05/07 11:48:33;;;;;;;2.07;1.87;;;15.90;99.90;;;;;;6484716;22;20223;-82
2024/05/07 11:51:02;;;;;;;2.33;1.90;;;15.70;99.90;;;;;;6529776;22;20251;-82
2024/05/07 11:53:31;;;;;;;8.13;1.87;;;15.70;99.90;;;;;;6485071;22;20250;-82
2024/05/07 11:56:03;;;;;;;3.13;1.50;;;15.70;99.90;;;;;;6529775;22;20350;-82
2024/05/07 11:58:32;;;;;;;2.17;1.87;;;16.00;99.90;;;;;;6529651;22;20215;-82
2024/05/07 12:01:00;;;;;;;2.20;1.90;;;16.00;99.90;;;;;;6496909;21;20242;-82
2024/05/07 12:03:28;;;;;;;2.57;1.63;;;15.90;99.90;;;;;;6580089;21;20250;-82
2024/05/07 12:05:57;;;;;;;1.67;1.57;;;15.80;99.90;;;;;;6579981;21;20227;-82
2024/05/07 12:08:26;;;;;;;2.07;1.77;;;15.60;99.90;;;;;;6582085;21;20215;-82
2024/05/07 12:10:55;;;;;;;2.07;1.80;;;15.40;99.90;;;;;;6581906;21;20215;-82
2024/05/07 12:13:26;;;;;;;2.27;1.90;;;15.60;99.90;;;;;;6579613;21;20234;-81
2024/05/07 12:15:54;;;;;;;2.37;1.90;;;15.60;99.90;;;;;;6582419;21;20257;-81
2024/05/07 12:18:23;;;;;;;6.37;2.00;;;15.50;99.90;;;;;;6579677;21;20231;-81
2024/05/07 12:20:51;;;;;;;2.60;2.30;;;15.30;99.90;;;;;;6580122;21;20230;-80
2024/05/07 12:26:04;;;;;;;4.63;2.67;;;14.90;99.90;;;;;;6582409;21;20332;-79
2024/05/07 12:28:38;;;;;;;3.43;2.90;;;14.70;99.90;;;;;;6579908;21;20258;-79
2024/05/07 12:31:07;;;;;;;3.53;2.63;;;14.30;99.90;;;;;;6579679;21;20324;-79
2024/05/07 12:33:35;;;;;;;5.20;3.20;;;14.20;99.90;;;;;;6579881;21;20250;-79
2024/05/07 12:36:04;;;;;;;3.33;3.03;;;14.30;99.90;;;;;;6582101;21;20293;-79
2024/05/07 12:38:32;;;;;;;3.93;2.70;;;14.40;99.90;;;;;;6579921;21;20269;-79
2024/05/07 12:41:01;;;;;;;2.90;2.70;;;14.40;99.90;;;;;;6581733;21;20215;-79
2024/05/07 12:43:29;;;;;;;3.23;2.40;;;14.50;99.90;;;;;;6581861;21;20266;-79
2024/05/07 12:46:01;;;;;;;2.97;2.67;;;14.50;99.90;;;;;;6579808;21;20250;-79
2024/05/07 12:48:29;;;;;;;2.77;2.50;;;14.60;99.90;;;;;;6580010;21;20227;-79
2024/05/07 12:50:58;;;;;;;3.53;2.60;;;14.70;99.90;;;;;;6582232;21;20219;-79
2024/05/07 12:53:26;;;;;;;3.00;2.70;;;14.90;99.90;;;;;;6579498;21;20700;-79
2024/05/07 12:55:55;;;;;;;5.20;2.60;;;15.00;99.90;;;;;;6579685;21;20238;-79
2024/05/07 12:58:24;;;;;;;2.70;2.50;;;15.10;99.90;;;;;;6584252;21;20215;-79
2024/05/07 13:00:52;;;;;;;3.73;2.43;;;15.10;99.90;;;;;;6574068;21;20239;-79